Zemple, Minnesota
Current Conditions -  °F | °C
As of 10:13 PM on Wednesday 17 Dec 2014 (Local Time) from KFOZ Reporting Station
Clear Clear  
Wind Chill:   Ceiling: Unl
Heat Index:   Visibility: 10mi
Dew Point:   Wind: 0mph
Humidity: 92%   Direction: NA
Pressure: 30.3"   Gusts: NA
Location:  47.4603°N, 94.029°W
Report Text: KFOZ 180413Z AUTO 00000KT 10SM CLR M16/M17 A3030 RMK AO2
Loading
Personal Weather Stations






























Interactive Weather Map New forecast layout! Learn more

10-Day Weather Forecast

Advertisements
Track Severe Weather on mobile